sensor_id;sensor_type;location;lat;lon;timestamp;P1;durP1;ratioP1;P2;durP2;ratioP2
41333;SDS011;27078;46.428;6.256;2023-07-31T00:01:50;3.00;;;1.10;;
41333;SDS011;27078;46.428;6.256;2023-07-31T00:04:15;4.38;;;1.15;;
41333;SDS011;27078;46.428;6.256;2023-07-31T00:06:40;2.58;;;0.77;;
41333;SDS011;27078;46.428;6.256;2023-07-31T00:09:05;4.35;;;1.20;;
41333;SDS011;27078;46.428;6.256;2023-07-31T00:11:31;2.17;;;1.15;;
41333;SDS011;27078;46.428;6.256;2023-07-31T00:13:56;3.67;;;1.10;;
41333;SDS011;27078;46.428;6.256;2023-07-31T00:16:21;3.83;;;1.20;;
41333;SDS011;27078;46.428;6.256;2023-07-31T00:18:47;3.22;;;1.00;;
41333;SDS011;27078;46.428;6.256;2023-07-31T00:21:12;4.97;;;1.40;;
41333;SDS011;27078;46.428;6.256;2023-07-31T00:23:38;4.30;;;1.20;;
41333;SDS011;27078;46.428;6.256;2023-07-31T00:26:03;3.92;;;1.20;;
41333;SDS011;27078;46.428;6.256;2023-07-31T00:28:28;4.07;;;1.10;;
41333;SDS011;27078;46.428;6.256;2023-07-31T00:30:54;2.83;;;1.15;;
41333;SDS011;27078;46.428;6.256;2023-07-31T00:33:19;3.50;;;1.25;;
41333;SDS011;27078;46.428;6.256;2023-07-31T00:35:45;3.08;;;1.05;;
41333;SDS011;27078;46.428;6.256;2023-07-31T00:38:10;3.33;;;1.23;;
41333;SDS011;27078;46.428;6.256;2023-07-31T00:40:36;4.15;;;1.00;;
41333;SDS011;27078;46.428;6.256;2023-07-31T00:43:02;2.55;;;1.00;;
41333;SDS011;27078;46.428;6.256;2023-07-31T00:45:28;3.17;;;1.08;;
41333;SDS011;27078;46.428;6.256;2023-07-31T00:47:54;2.92;;;1.10;;
41333;SDS011;27078;46.428;6.256;2023-07-31T00:50:19;3.40;;;1.10;;
41333;SDS011;27078;46.428;6.256;2023-07-31T00:52:44;3.45;;;1.10;;
41333;SDS011;27078;46.428;6.256;2023-07-31T00:55:10;3.92;;;1.20;;
41333;SDS011;27078;46.428;6.256;2023-07-31T00:57:36;3.38;;;1.10;;
41333;SDS011;27078;46.428;6.256;2023-07-31T01:00:03;3.90;;;1.13;;
41333;SDS011;27078;46.428;6.256;2023-07-31T01:02:28;3.85;;;1.40;;
41333;SDS011;27078;46.428;6.256;2023-07-31T01:04:54;3.00;;;1.00;;
41333;SDS011;27078;46.428;6.256;2023-07-31T01:12:43;5.13;;;1.10;;
41333;SDS011;27078;46.428;6.256;2023-07-31T01:15:11;4.78;;;1.10;;
41333;SDS011;27078;46.428;6.256;2023-07-31T01:17:37;3.92;;;1.15;;
41333;SDS011;27078;46.428;6.256;2023-07-31T01:20:03;3.38;;;0.80;;
41333;SDS011;27078;46.428;6.256;2023-07-31T01:28:14;3.15;;;1.05;;
41333;SDS011;27078;46.428;6.256;2023-07-31T01:31:21;3.08;;;1.13;;
41333;SDS011;27078;46.428;6.256;2023-07-31T01:33:49;3.20;;;1.13;;
41333;SDS011;27078;46.428;6.256;2023-07-31T01:36:17;3.72;;;1.20;;
41333;SDS011;27078;46.428;6.256;2023-07-31T01:38:43;4.05;;;1.08;;
41333;SDS011;27078;46.428;6.256;2023-07-31T01:41:08;3.25;;;0.95;;
41333;SDS011;27078;46.428;6.256;2023-07-31T01:43:33;4.15;;;1.20;;
41333;SDS011;27078;46.428;6.256;2023-07-31T01:45:59;3.88;;;1.00;;
41333;SDS011;27078;46.428;6.256;2023-07-31T01:48:24;6.53;;;1.45;;
41333;SDS011;27078;46.428;6.256;2023-07-31T01:50:49;5.63;;;1.45;;
41333;SDS011;27078;46.428;6.256;2023-07-31T01:53:14;3.88;;;1.20;;
41333;SDS011;27078;46.428;6.256;2023-07-31T01:55:40;3.25;;;1.15;;
41333;SDS011;27078;46.428;6.256;2023-07-31T01:58:05;4.40;;;1.20;;
41333;SDS011;27078;46.428;6.256;2023-07-31T02:00:30;3.45;;;1.15;;
41333;SDS011;27078;46.428;6.256;2023-07-31T02:02:56;5.10;;;1.20;;
41333;SDS011;27078;46.428;6.256;2023-07-31T02:05:21;4.75;;;1.20;;
41333;SDS011;27078;46.428;6.256;2023-07-31T02:07:46;4.55;;;0.95;;
41333;SDS011;27078;46.428;6.256;2023-07-31T02:10:12;2.85;;;1.10;;
41333;SDS011;27078;46.428;6.256;2023-07-31T02:12:38;2.78;;;1.15;;
41333;SDS011;27078;46.428;6.256;2023-07-31T02:15:03;4.90;;;1.23;;
41333;SDS011;27078;46.428;6.256;2023-07-31T02:17:29;3.10;;;1.10;;
41333;SDS011;27078;46.428;6.256;2023-07-31T02:19:54;3.97;;;1.10;;
41333;SDS011;27078;46.428;6.256;2023-07-31T02:22:20;3.95;;;1.15;;
41333;SDS011;27078;46.428;6.256;2023-07-31T02:24:45;2.85;;;1.02;;
41333;SDS011;27078;46.428;6.256;2023-07-31T02:27:10;3.75;;;1.08;;
41333;SDS011;27078;46.428;6.256;2023-07-31T02:29:36;2.72;;;1.00;;
41333;SDS011;27078;46.428;6.256;2023-07-31T02:32:01;2.40;;;1.08;;
41333;SDS011;27078;46.428;6.256;2023-07-31T02:34:26;2.80;;;1.00;;
41333;SDS011;27078;46.428;6.256;2023-07-31T02:36:52;3.03;;;1.00;;
41333;SDS011;27078;46.428;6.256;2023-07-31T02:39:17;2.30;;;0.95;;
41333;SDS011;27078;46.428;6.256;2023-07-31T02:41:42;2.97;;;1.08;;
41333;SDS011;27078;46.428;6.256;2023-07-31T02:44:08;2.33;;;0.95;;
41333;SDS011;27078;46.428;6.256;2023-07-31T02:46:33;5.10;;;1.10;;
41333;SDS011;27078;46.428;6.256;2023-07-31T02:48:58;2.65;;;1.00;;
41333;SDS011;27078;46.428;6.256;2023-07-31T02:51:24;3.78;;;1.17;;
41333;SDS011;27078;46.428;6.256;2023-07-31T02:53:49;3.22;;;1.00;;
41333;SDS011;27078;46.428;6.256;2023-07-31T02:56:14;4.78;;;1.10;;
41333;SDS011;27078;46.428;6.256;2023-07-31T02:58:40;3.38;;;1.00;;
41333;SDS011;27078;46.428;6.256;2023-07-31T03:01:05;2.50;;;1.17;;
41333;SDS011;27078;46.428;6.256;2023-07-31T03:03:31;4.30;;;1.20;;
41333;SDS011;27078;46.428;6.256;2023-07-31T03:05:56;4.90;;;1.20;;
41333;SDS011;27078;46.428;6.256;2023-07-31T03:08:21;3.53;;;1.10;;
41333;SDS011;27078;46.428;6.256;2023-07-31T03:10:47;2.45;;;1.10;;
41333;SDS011;27078;46.428;6.256;2023-07-31T03:13:12;3.45;;;1.00;;
41333;SDS011;27078;46.428;6.256;2023-07-31T03:15:37;3.03;;;1.10;;
41333;SDS011;27078;46.428;6.256;2023-07-31T03:18:03;3.03;;;1.13;;
41333;SDS011;27078;46.428;6.256;2023-07-31T03:20:28;4.03;;;1.13;;
41333;SDS011;27078;46.428;6.256;2023-07-31T03:22:53;3.65;;;1.10;;
41333;SDS011;27078;46.428;6.256;2023-07-31T03:25:19;3.83;;;1.10;;
41333;SDS011;27078;46.428;6.256;2023-07-31T03:27:44;2.60;;;1.08;;
41333;SDS011;27078;46.428;6.256;2023-07-31T03:30:09;2.80;;;1.13;;
41333;SDS011;27078;46.428;6.256;2023-07-31T03:32:35;2.75;;;1.25;;
41333;SDS011;27078;46.428;6.256;2023-07-31T03:35:00;2.92;;;1.00;;
41333;SDS011;27078;46.428;6.256;2023-07-31T03:37:26;2.50;;;1.00;;
41333;SDS011;27078;46.428;6.256;2023-07-31T03:39:51;2.90;;;1.10;;
41333;SDS011;27078;46.428;6.256;2023-07-31T03:42:16;5.47;;;1.23;;
41333;SDS011;27078;46.428;6.256;2023-07-31T03:44:42;3.90;;;1.30;;
41333;SDS011;27078;46.428;6.256;2023-07-31T03:47:07;3.45;;;1.15;;
41333;SDS011;27078;46.428;6.256;2023-07-31T03:49:32;3.58;;;1.10;;
41333;SDS011;27078;46.428;6.256;2023-07-31T03:51:58;3.88;;;1.23;;
41333;SDS011;27078;46.428;6.256;2023-07-31T03:54:23;4.63;;;1.40;;
41333;SDS011;27078;46.428;6.256;2023-07-31T03:56:49;4.18;;;1.40;;
41333;SDS011;27078;46.428;6.256;2023-07-31T03:59:14;3.55;;;1.30;;
41333;SDS011;27078;46.428;6.256;2023-07-31T04:01:40;4.18;;;1.15;;
41333;SDS011;27078;46.428;6.256;2023-07-31T04:04:05;4.00;;;1.30;;
41333;SDS011;27078;46.428;6.256;2023-07-31T04:06:30;4.10;;;1.40;;
41333;SDS011;27078;46.428;6.256;2023-07-31T04:08:56;3.25;;;1.23;;
41333;SDS011;27078;46.428;6.256;2023-07-31T04:11:21;3.85;;;1.27;;
41333;SDS011;27078;46.428;6.256;2023-07-31T04:13:46;3.28;;;1.33;;
41333;SDS011;27078;46.428;6.256;2023-07-31T04:16:12;4.10;;;1.35;;
41333;SDS011;27078;46.428;6.256;2023-07-31T04:18:37;2.90;;;1.13;;
41333;SDS011;27078;46.428;6.256;2023-07-31T04:21:03;5.75;;;1.20;;
41333;SDS011;27078;46.428;6.256;2023-07-31T04:23:28;4.82;;;1.30;;
41333;SDS011;27078;46.428;6.256;2023-07-31T04:25:54;2.88;;;1.30;;
41333;SDS011;27078;46.428;6.256;2023-07-31T04:28:19;4.47;;;1.10;;
41333;SDS011;27078;46.428;6.256;2023-07-31T04:30:44;3.08;;;1.00;;
41333;SDS011;27078;46.428;6.256;2023-07-31T04:33:10;4.60;;;1.33;;
41333;SDS011;27078;46.428;6.256;2023-07-31T04:35:35;3.35;;;1.00;;
41333;SDS011;27078;46.428;6.256;2023-07-31T04:38:01;3.53;;;1.10;;
41333;SDS011;27078;46.428;6.256;2023-07-31T04:40:26;6.05;;;1.45;;
41333;SDS011;27078;46.428;6.256;2023-07-31T04:42:51;5.28;;;1.50;;
41333;SDS011;27078;46.428;6.256;2023-07-31T04:45:17;4.60;;;1.50;;
41333;SDS011;27078;46.428;6.256;2023-07-31T04:47:42;3.58;;;1.20;;
41333;SDS011;27078;46.428;6.256;2023-07-31T04:50:07;6.45;;;1.60;;
41333;SDS011;27078;46.428;6.256;2023-07-31T04:52:33;4.30;;;1.20;;
41333;SDS011;27078;46.428;6.256;2023-07-31T04:54:58;4.95;;;1.30;;
41333;SDS011;27078;46.428;6.256;2023-07-31T04:57:24;3.90;;;1.17;;
41333;SDS011;27078;46.428;6.256;2023-07-31T04:59:49;3.47;;;1.33;;
41333;SDS011;27078;46.428;6.256;2023-07-31T05:02:14;4.10;;;1.30;;
41333;SDS011;27078;46.428;6.256;2023-07-31T05:04:40;3.22;;;1.40;;
41333;SDS011;27078;46.428;6.256;2023-07-31T05:07:05;3.60;;;1.38;;
41333;SDS011;27078;46.428;6.256;2023-07-31T05:09:31;5.03;;;1.63;;
41333;SDS011;27078;46.428;6.256;2023-07-31T05:11:56;5.70;;;1.30;;
41333;SDS011;27078;46.428;6.256;2023-07-31T05:14:21;7.45;;;1.40;;
41333;SDS011;27078;46.428;6.256;2023-07-31T05:16:48;4.75;;;1.20;;
41333;SDS011;27078;46.428;6.256;2023-07-31T05:19:13;4.22;;;1.33;;
41333;SDS011;27078;46.428;6.256;2023-07-31T05:21:39;3.38;;;1.17;;
41333;SDS011;27078;46.428;6.256;2023-07-31T05:24:04;4.82;;;1.25;;
41333;SDS011;27078;46.428;6.256;2023-07-31T05:26:30;2.63;;;1.20;;
41333;SDS011;27078;46.428;6.256;2023-07-31T05:28:55;3.47;;;1.42;;
41333;SDS011;27078;46.428;6.256;2023-07-31T05:31:22;3.55;;;1.35;;
41333;SDS011;27078;46.428;6.256;2023-07-31T05:33:49;4.10;;;1.10;;
41333;SDS011;27078;46.428;6.256;2023-07-31T05:36:15;4.53;;;1.50;;
41333;SDS011;27078;46.428;6.256;2023-07-31T05:38:41;4.57;;;1.27;;
41333;SDS011;27078;46.428;6.256;2023-07-31T05:41:07;4.15;;;1.40;;
41333;SDS011;27078;46.428;6.256;2023-07-31T05:43:32;3.95;;;1.35;;
41333;SDS011;27078;46.428;6.256;2023-07-31T05:45:57;3.22;;;1.30;;
41333;SDS011;27078;46.428;6.256;2023-07-31T05:48:23;4.18;;;1.30;;
41333;SDS011;27078;46.428;6.256;2023-07-31T05:50:48;3.67;;;1.40;;
41333;SDS011;27078;46.428;6.256;2023-07-31T05:53:13;3.72;;;1.40;;
41333;SDS011;27078;46.428;6.256;2023-07-31T05:55:39;5.10;;;1.20;;
41333;SDS011;27078;46.428;6.256;2023-07-31T05:58:04;4.32;;;1.35;;
41333;SDS011;27078;46.428;6.256;2023-07-31T06:00:29;4.30;;;1.30;;
41333;SDS011;27078;46.428;6.256;2023-07-31T06:02:55;4.55;;;1.50;;
41333;SDS011;27078;46.428;6.256;2023-07-31T06:05:20;2.67;;;1.30;;
41333;SDS011;27078;46.428;6.256;2023-07-31T06:07:45;5.03;;;1.40;;
41333;SDS011;27078;46.428;6.256;2023-07-31T06:10:11;4.75;;;1.48;;
41333;SDS011;27078;46.428;6.256;2023-07-31T06:12:36;3.80;;;1.20;;
41333;SDS011;27078;46.428;6.256;2023-07-31T06:15:02;5.20;;;1.45;;
41333;SDS011;27078;46.428;6.256;2023-07-31T06:17:28;4.22;;;1.30;;
41333;SDS011;27078;46.428;6.256;2023-07-31T06:19:54;4.43;;;1.50;;
41333;SDS011;27078;46.428;6.256;2023-07-31T06:22:21;4.10;;;1.35;;
41333;SDS011;27078;46.428;6.256;2023-07-31T06:24:46;3.70;;;1.17;;
41333;SDS011;27078;46.428;6.256;2023-07-31T06:27:12;4.72;;;1.45;;
41333;SDS011;27078;46.428;6.256;2023-07-31T06:29:37;3.83;;;1.20;;
41333;SDS011;27078;46.428;6.256;2023-07-31T06:32:02;4.10;;;1.20;;
41333;SDS011;27078;46.428;6.256;2023-07-31T06:34:28;3.78;;;1.33;;
41333;SDS011;27078;46.428;6.256;2023-07-31T06:36:54;4.80;;;1.50;;
41333;SDS011;27078;46.428;6.256;2023-07-31T06:39:20;3.53;;;1.20;;
41333;SDS011;27078;46.428;6.256;2023-07-31T06:41:45;2.78;;;1.10;;
41333;SDS011;27078;46.428;6.256;2023-07-31T06:44:11;5.22;;;1.20;;
41333;SDS011;27078;46.428;6.256;2023-07-31T06:46:36;3.78;;;1.35;;
41333;SDS011;27078;46.428;6.256;2023-07-31T06:49:02;4.40;;;1.33;;
41333;SDS011;27078;46.428;6.256;2023-07-31T06:51:27;5.10;;;1.02;;
41333;SDS011;27078;46.428;6.256;2023-07-31T06:53:52;3.38;;;1.23;;
41333;SDS011;27078;46.428;6.256;2023-07-31T06:56:18;3.83;;;1.30;;
41333;SDS011;27078;46.428;6.256;2023-07-31T06:58:43;2.80;;;1.27;;
41333;SDS011;27078;46.428;6.256;2023-07-31T07:01:08;3.45;;;1.35;;
41333;SDS011;27078;46.428;6.256;2023-07-31T07:03:34;4.60;;;1.25;;
41333;SDS011;27078;46.428;6.256;2023-07-31T07:05:59;4.32;;;1.38;;
41333;SDS011;27078;46.428;6.256;2023-07-31T07:08:25;3.95;;;1.45;;
41333;SDS011;27078;46.428;6.256;2023-07-31T07:10:50;3.47;;;1.27;;
41333;SDS011;27078;46.428;6.256;2023-07-31T07:13:16;2.85;;;1.13;;
41333;SDS011;27078;46.428;6.256;2023-07-31T07:15:43;3.35;;;1.20;;
41333;SDS011;27078;46.428;6.256;2023-07-31T07:18:12;3.65;;;1.30;;
41333;SDS011;27078;46.428;6.256;2023-07-31T07:20:38;3.55;;;1.20;;
41333;SDS011;27078;46.428;6.256;2023-07-31T07:23:04;4.80;;;1.30;;
41333;SDS011;27078;46.428;6.256;2023-07-31T07:25:29;3.72;;;1.40;;
41333;SDS011;27078;46.428;6.256;2023-07-31T07:27:54;5.05;;;1.55;;
41333;SDS011;27078;46.428;6.256;2023-07-31T07:30:20;4.20;;;1.00;;
41333;SDS011;27078;46.428;6.256;2023-07-31T07:32:45;6.38;;;1.58;;
41333;SDS011;27078;46.428;6.256;2023-07-31T07:35:11;6.20;;;1.67;;
41333;SDS011;27078;46.428;6.256;2023-07-31T07:37:36;3.50;;;1.30;;
41333;SDS011;27078;46.428;6.256;2023-07-31T07:40:02;5.75;;;1.30;;
41333;SDS011;27078;46.428;6.256;2023-07-31T07:42:27;2.58;;;1.00;;
41333;SDS011;27078;46.428;6.256;2023-07-31T07:44:52;3.50;;;1.40;;
41333;SDS011;27078;46.428;6.256;2023-07-31T07:47:18;3.90;;;1.33;;
41333;SDS011;27078;46.428;6.256;2023-07-31T07:49:43;3.25;;;1.20;;
41333;SDS011;27078;46.428;6.256;2023-07-31T07:52:08;2.85;;;1.30;;
41333;SDS011;27078;46.428;6.256;2023-07-31T07:54:34;4.38;;;1.38;;
41333;SDS011;27078;46.428;6.256;2023-07-31T07:56:59;6.72;;;1.38;;
41333;SDS011;27078;46.428;6.256;2023-07-31T07:59:24;4.32;;;1.10;;
41333;SDS011;27078;46.428;6.256;2023-07-31T08:01:50;3.90;;;1.17;;
41333;SDS011;27078;46.428;6.256;2023-07-31T08:04:15;4.05;;;1.27;;
41333;SDS011;27078;46.428;6.256;2023-07-31T08:06:40;2.97;;;1.20;;
41333;SDS011;27078;46.428;6.256;2023-07-31T08:09:06;2.88;;;1.30;;
41333;SDS011;27078;46.428;6.256;2023-07-31T08:11:34;5.05;;;1.50;;
41333;SDS011;27078;46.428;6.256;2023-07-31T08:14:00;3.40;;;1.10;;
41333;SDS011;27078;46.428;6.256;2023-07-31T08:16:25;3.08;;;1.20;;
41333;SDS011;27078;46.428;6.256;2023-07-31T08:18:51;4.20;;;1.20;;
41333;SDS011;27078;46.428;6.256;2023-07-31T08:21:16;3.00;;;1.10;;
41333;SDS011;27078;46.428;6.256;2023-07-31T08:23:41;3.20;;;1.00;;
41333;SDS011;27078;46.428;6.256;2023-07-31T08:26:07;4.15;;;1.25;;
41333;SDS011;27078;46.428;6.256;2023-07-31T08:28:32;4.20;;;1.20;;
41333;SDS011;27078;46.428;6.256;2023-07-31T08:30:58;3.83;;;1.10;;
41333;SDS011;27078;46.428;6.256;2023-07-31T08:33:23;6.50;;;1.40;;
41333;SDS011;27078;46.428;6.256;2023-07-31T08:35:48;5.07;;;1.20;;
41333;SDS011;27078;46.428;6.256;2023-07-31T08:38:14;4.03;;;1.08;;
41333;SDS011;27078;46.428;6.256;2023-07-31T08:40:39;2.38;;;1.17;;
41333;SDS011;27078;46.428;6.256;2023-07-31T08:43:04;2.15;;;1.13;;
41333;SDS011;27078;46.428;6.256;2023-07-31T08:45:30;3.40;;;0.90;;
41333;SDS011;27078;46.428;6.256;2023-07-31T08:47:56;3.05;;;1.23;;
41333;SDS011;27078;46.428;6.256;2023-07-31T08:50:22;4.43;;;1.27;;
41333;SDS011;27078;46.428;6.256;2023-07-31T08:52:49;3.97;;;1.10;;
41333;SDS011;27078;46.428;6.256;2023-07-31T08:55:15;2.20;;;1.00;;
41333;SDS011;27078;46.428;6.256;2023-07-31T08:57:43;3.38;;;1.10;;
41333;SDS011;27078;46.428;6.256;2023-07-31T09:00:10;4.72;;;1.10;;
41333;SDS011;27078;46.428;6.256;2023-07-31T09:05:11;4.82;;;1.27;;
41333;SDS011;27078;46.428;6.256;2023-07-31T09:07:37;2.70;;;1.10;;
41333;SDS011;27078;46.428;6.256;2023-07-31T09:10:04;5.68;;;1.10;;
41333;SDS011;27078;46.428;6.256;2023-07-31T09:12:30;3.17;;;1.10;;
41333;SDS011;27078;46.428;6.256;2023-07-31T09:14:59;3.55;;;1.20;;
41333;SDS011;27078;46.428;6.256;2023-07-31T09:17:32;3.65;;;1.00;;
41333;SDS011;27078;46.428;6.256;2023-07-31T09:20:03;3.67;;;1.08;;
41333;SDS011;27078;46.428;6.256;2023-07-31T09:22:38;3.90;;;1.27;;
41333;SDS011;27078;46.428;6.256;2023-07-31T09:25:20;2.42;;;1.10;;
41333;SDS011;27078;46.428;6.256;2023-07-31T09:27:48;4.03;;;1.10;;
41333;SDS011;27078;46.428;6.256;2023-07-31T09:30:14;3.38;;;1.20;;
41333;SDS011;27078;46.428;6.256;2023-07-31T09:32:41;3.10;;;1.05;;
41333;SDS011;27078;46.428;6.256;2023-07-31T09:35:18;2.85;;;1.08;;
41333;SDS011;27078;46.428;6.256;2023-07-31T09:37:52;3.60;;;1.30;;
41333;SDS011;27078;46.428;6.256;2023-07-31T09:40:25;4.00;;;1.20;;
41333;SDS011;27078;46.428;6.256;2023-07-31T09:42:58;3.88;;;1.30;;
41333;SDS011;27078;46.428;6.256;2023-07-31T09:45:25;4.82;;;1.40;;
41333;SDS011;27078;46.428;6.256;2023-07-31T09:47:51;4.28;;;1.25;;
41333;SDS011;27078;46.428;6.256;2023-07-31T09:50:19;3.50;;;1.30;;
41333;SDS011;27078;46.428;6.256;2023-07-31T09:52:46;3.50;;;1.10;;
41333;SDS011;27078;46.428;6.256;2023-07-31T09:55:11;4.07;;;1.20;;
41333;SDS011;27078;46.428;6.256;2023-07-31T09:57:38;4.75;;;1.20;;
41333;SDS011;27078;46.428;6.256;2023-07-31T10:00:06;4.05;;;1.40;;
41333;SDS011;27078;46.428;6.256;2023-07-31T10:02:34;4.72;;;1.20;;
41333;SDS011;27078;46.428;6.256;2023-07-31T10:05:12;4.28;;;1.27;;
41333;SDS011;27078;46.428;6.256;2023-07-31T10:08:23;2.75;;;1.10;;
41333;SDS011;27078;46.428;6.256;2023-07-31T10:11:38;3.17;;;1.30;;
41333;SDS011;27078;46.428;6.256;2023-07-31T10:14:48;3.83;;;1.17;;
41333;SDS011;27078;46.428;6.256;2023-07-31T10:18:00;3.75;;;1.20;;
41333;SDS011;27078;46.428;6.256;2023-07-31T10:21:05;3.03;;;1.20;;
41333;SDS011;27078;46.428;6.256;2023-07-31T10:24:13;3.42;;;1.40;;
41333;SDS011;27078;46.428;6.256;2023-07-31T10:26:53;3.17;;;1.30;;
41333;SDS011;27078;46.428;6.256;2023-07-31T10:29:41;4.05;;;1.10;;
41333;SDS011;27078;46.428;6.256;2023-07-31T10:32:51;4.80;;;1.45;;
41333;SDS011;27078;46.428;6.256;2023-07-31T10:42:38;3.67;;;1.30;;
41333;SDS011;27078;46.428;6.256;2023-07-31T10:45:56;3.05;;;1.20;;
41333;SDS011;27078;46.428;6.256;2023-07-31T10:51:35;3.53;;;1.13;;
41333;SDS011;27078;46.428;6.256;2023-07-31T10:54:24;4.15;;;1.27;;
41333;SDS011;27078;46.428;6.256;2023-07-31T10:57:31;3.97;;;1.30;;
41333;SDS011;27078;46.428;6.256;2023-07-31T11:00:38;5.40;;;1.38;;
41333;SDS011;27078;46.428;6.256;2023-07-31T11:03:40;4.72;;;1.40;;
41333;SDS011;27078;46.428;6.256;2023-07-31T11:09:53;4.20;;;1.38;;
41333;SDS011;27078;46.428;6.256;2023-07-31T11:12:33;4.93;;;1.45;;
41333;SDS011;27078;46.428;6.256;2023-07-31T11:15:02;3.47;;;1.38;;
41333;SDS011;27078;46.428;6.256;2023-07-31T11:17:34;4.00;;;1.48;;
41333;SDS011;27078;46.428;6.256;2023-07-31T11:20:11;4.45;;;1.45;;
41333;SDS011;27078;46.428;6.256;2023-07-31T11:22:47;6.28;;;1.48;;
41333;SDS011;27078;46.428;6.256;2023-07-31T11:25:20;3.67;;;1.40;;
41333;SDS011;27078;46.428;6.256;2023-07-31T11:27:51;3.03;;;1.10;;
41333;SDS011;27078;46.428;6.256;2023-07-31T11:30:37;3.63;;;1.50;;
41333;SDS011;27078;46.428;6.256;2023-07-31T11:33:29;3.28;;;1.40;;
41333;SDS011;27078;46.428;6.256;2023-07-31T11:36:52;3.85;;;1.15;;
41333;SDS011;27078;46.428;6.256;2023-07-31T11:40:11;5.80;;;1.40;;
41333;SDS011;27078;46.428;6.256;2023-07-31T11:43:32;5.30;;;1.50;;
41333;SDS011;27078;46.428;6.256;2023-07-31T11:46:43;4.22;;;1.40;;
41333;SDS011;27078;46.428;6.256;2023-07-31T11:49:58;3.60;;;1.15;;
41333;SDS011;27078;46.428;6.256;2023-07-31T11:53:04;4.13;;;1.40;;
41333;SDS011;27078;46.428;6.256;2023-07-31T11:56:18;4.43;;;1.42;;
41333;SDS011;27078;46.428;6.256;2023-07-31T11:59:12;3.97;;;1.10;;
41333;SDS011;27078;46.428;6.256;2023-07-31T12:01:42;3.17;;;1.20;;
41333;SDS011;27078;46.428;6.256;2023-07-31T12:04:21;3.50;;;1.45;;
41333;SDS011;27078;46.428;6.256;2023-07-31T12:11:04;4.80;;;1.48;;
41333;SDS011;27078;46.428;6.256;2023-07-31T12:17:34;3.35;;;1.52;;
41333;SDS011;27078;46.428;6.256;2023-07-31T12:24:09;3.95;;;1.70;;
41333;SDS011;27078;46.428;6.256;2023-07-31T12:27:19;5.75;;;1.80;;
41333;SDS011;27078;46.428;6.256;2023-07-31T12:30:33;5.43;;;2.20;;
41333;SDS011;27078;46.428;6.256;2023-07-31T12:33:40;35.20;;;11.93;;
41333;SDS011;27078;46.428;6.256;2023-07-31T12:36:48;30.92;;;9.27;;
41333;SDS011;27078;46.428;6.256;2023-07-31T12:39:58;12.25;;;4.18;;
41333;SDS011;27078;46.428;6.256;2023-07-31T12:43:05;8.63;;;3.33;;
41333;SDS011;27078;46.428;6.256;2023-07-31T12:46:11;8.10;;;2.40;;
41333;SDS011;27078;46.428;6.256;2023-07-31T12:49:18;7.40;;;2.50;;
41333;SDS011;27078;46.428;6.256;2023-07-31T12:52:26;4.78;;;1.60;;
41333;SDS011;27078;46.428;6.256;2023-07-31T12:55:39;3.97;;;1.30;;
41333;SDS011;27078;46.428;6.256;2023-07-31T12:58:45;3.20;;;1.52;;
41333;SDS011;27078;46.428;6.256;2023-07-31T13:01:58;4.60;;;1.70;;
41333;SDS011;27078;46.428;6.256;2023-07-31T13:05:09;3.85;;;1.45;;
41333;SDS011;27078;46.428;6.256;2023-07-31T13:08:24;3.88;;;1.40;;
41333;SDS011;27078;46.428;6.256;2023-07-31T13:14:29;3.20;;;1.40;;
41333;SDS011;27078;46.428;6.256;2023-07-31T13:17:37;3.63;;;1.60;;
41333;SDS011;27078;46.428;6.256;2023-07-31T13:20:50;4.72;;;1.55;;
41333;SDS011;27078;46.428;6.256;2023-07-31T13:23:57;3.25;;;1.40;;
41333;SDS011;27078;46.428;6.256;2023-07-31T13:27:10;4.10;;;1.63;;
41333;SDS011;27078;46.428;6.256;2023-07-31T13:30:17;3.78;;;1.38;;
41333;SDS011;27078;46.428;6.256;2023-07-31T13:33:34;2.33;;;1.13;;
41333;SDS011;27078;46.428;6.256;2023-07-31T13:36:39;3.10;;;1.20;;
41333;SDS011;27078;46.428;6.256;2023-07-31T13:39:46;2.95;;;1.42;;
41333;SDS011;27078;46.428;6.256;2023-07-31T13:42:55;2.28;;;1.30;;
41333;SDS011;27078;46.428;6.256;2023-07-31T13:46:08;4.03;;;1.40;;
41333;SDS011;27078;46.428;6.256;2023-07-31T13:49:15;3.17;;;1.40;;
41333;SDS011;27078;46.428;6.256;2023-07-31T13:52:28;3.70;;;1.50;;
41333;SDS011;27078;46.428;6.256;2023-07-31T13:55:35;3.00;;;1.60;;
41333;SDS011;27078;46.428;6.256;2023-07-31T13:58:48;4.07;;;1.42;;
41333;SDS011;27078;46.428;6.256;2023-07-31T14:01:55;3.00;;;1.58;;
41333;SDS011;27078;46.428;6.256;2023-07-31T14:04:51;3.75;;;1.60;;
41333;SDS011;27078;46.428;6.256;2023-07-31T14:07:19;3.05;;;1.52;;
41333;SDS011;27078;46.428;6.256;2023-07-31T14:09:51;2.40;;;1.25;;
41333;SDS011;27078;46.428;6.256;2023-07-31T14:12:25;4.90;;;2.28;;
41333;SDS011;27078;46.428;6.256;2023-07-31T14:15:04;3.40;;;1.35;;
41333;SDS011;27078;46.428;6.256;2023-07-31T14:17:47;2.60;;;1.65;;
41333;SDS011;27078;46.428;6.256;2023-07-31T14:20:55;4.65;;;1.45;;
41333;SDS011;27078;46.428;6.256;2023-07-31T14:23:58;4.13;;;1.55;;
41333;SDS011;27078;46.428;6.256;2023-07-31T14:27:02;2.88;;;1.40;;
41333;SDS011;27078;46.428;6.256;2023-07-31T14:30:06;4.30;;;1.52;;
41333;SDS011;27078;46.428;6.256;2023-07-31T14:33:17;5.30;;;1.67;;
41333;SDS011;27078;46.428;6.256;2023-07-31T14:36:22;3.33;;;1.60;;
41333;SDS011;27078;46.428;6.256;2023-07-31T14:39:29;4.63;;;1.55;;
41333;SDS011;27078;46.428;6.256;2023-07-31T14:42:33;4.50;;;1.77;;
41333;SDS011;27078;46.428;6.256;2023-07-31T14:45:40;3.50;;;1.50;;
41333;SDS011;27078;46.428;6.256;2023-07-31T14:48:41;4.47;;;1.60;;
41333;SDS011;27078;46.428;6.256;2023-07-31T14:51:31;4.30;;;1.60;;
41333;SDS011;27078;46.428;6.256;2023-07-31T14:54:14;3.95;;;1.40;;
41333;SDS011;27078;46.428;6.256;2023-07-31T14:56:48;4.20;;;1.42;;
41333;SDS011;27078;46.428;6.256;2023-07-31T14:59:20;4.05;;;1.48;;
41333;SDS011;27078;46.428;6.256;2023-07-31T15:01:56;5.40;;;1.67;;
41333;SDS011;27078;46.428;6.256;2023-07-31T15:04:36;4.40;;;1.55;;
41333;SDS011;27078;46.428;6.256;2023-07-31T15:07:45;2.67;;;1.20;;
41333;SDS011;27078;46.428;6.256;2023-07-31T15:10:38;4.30;;;1.40;;
41333;SDS011;27078;46.428;6.256;2023-07-31T15:13:11;2.97;;;1.50;;
41333;SDS011;27078;46.428;6.256;2023-07-31T15:15:44;2.97;;;1.40;;
41333;SDS011;27078;46.428;6.256;2023-07-31T15:18:16;3.80;;;1.70;;
41333;SDS011;27078;46.428;6.256;2023-07-31T15:20:42;2.75;;;1.60;;
41333;SDS011;27078;46.428;6.256;2023-07-31T15:23:22;2.88;;;1.50;;
41333;SDS011;27078;46.428;6.256;2023-07-31T15:26:11;3.60;;;1.70;;
41333;SDS011;27078;46.428;6.256;2023-07-31T15:29:04;5.07;;;1.67;;
41333;SDS011;27078;46.428;6.256;2023-07-31T15:31:43;4.63;;;1.58;;
41333;SDS011;27078;46.428;6.256;2023-07-31T15:34:19;4.70;;;1.75;;
41333;SDS011;27078;46.428;6.256;2023-07-31T15:36:54;3.28;;;1.55;;
41333;SDS011;27078;46.428;6.256;2023-07-31T15:39:36;3.20;;;1.75;;
41333;SDS011;27078;46.428;6.256;2023-07-31T15:42:41;3.53;;;1.77;;
41333;SDS011;27078;46.428;6.256;2023-07-31T15:45:46;3.40;;;1.90;;
41333;SDS011;27078;46.428;6.256;2023-07-31T15:48:52;3.78;;;1.60;;
41333;SDS011;27078;46.428;6.256;2023-07-31T15:51:56;3.58;;;1.92;;
41333;SDS011;27078;46.428;6.256;2023-07-31T15:55:02;3.08;;;1.70;;
41333;SDS011;27078;46.428;6.256;2023-07-31T15:58:20;3.95;;;1.90;;
41333;SDS011;27078;46.428;6.256;2023-07-31T16:01:26;3.58;;;1.95;;
41333;SDS011;27078;46.428;6.256;2023-07-31T16:04:39;4.40;;;2.10;;
41333;SDS011;27078;46.428;6.256;2023-07-31T16:07:44;3.33;;;2.00;;
41333;SDS011;27078;46.428;6.256;2023-07-31T16:11:26;3.50;;;2.00;;
41333;SDS011;27078;46.428;6.256;2023-07-31T16:14:32;4.15;;;2.00;;
41333;SDS011;27078;46.428;6.256;2023-07-31T16:17:49;4.35;;;2.13;;
41333;SDS011;27078;46.428;6.256;2023-07-31T16:21:13;4.05;;;2.15;;
41333;SDS011;27078;46.428;6.256;2023-07-31T16:24:25;5.40;;;2.33;;
41333;SDS011;27078;46.428;6.256;2023-07-31T16:27:31;3.22;;;2.05;;